Pagina principale
METAR-TAF:

METAR-TAF

Aeroporti :

Aeroporto di Verona-Villafranca

Verona, Italia

latitudine: 45-23N, longitudine: 010-52E, altezza: 67 m

Osservazione

Il bollettino è stato emesso 35 minuti fa, alle 15:20 UTC
Vento 7 kt da nord-ovest
Temperature 29°C
Umidità 45%
Pressione 1017 hPa
Visibilità 10 km o più
Poco nuvoloso ad un'altezza di 5000 ft

METAR: LIPX 241520Z 32007KT 9999 FEW050 29/16 Q1017

Ora: 17:55 (15:55 UTC)

Previsione

Il bollettino è stato emesso 1 ora e 55 minuti fa, alle 14:00 UTC
Previsione valida dal 24 alle 15 UTC al 24 alle 24 UTC
Vento 5 kt da direzioni variabili
Visibilità 10 km o più
Nubi sparse ad un'altezza di 7000 ft
Probabilità 40% :
Temporaneamente
dal 24 alle 15 UTC al 24 alle 20 UTC
temporale, pioggia

TAF: LIPX 241400Z 2415/2424 VRB05KT 9999 SCT070 PROB40 TEMPO 2415/2420 TSRA

Osservazioni e previsioni meteorologiche di più di 4000 aeroporti (messaggi METAR e TAF).

Le stazioni disponibili sono rappresentate dai dischi gialli e rossi sulla carta.

Puntare il mouse per vedere il nome della stazione.

Clicca sopra per visualizzare le osservazioni e previsioni meteorologiche.

Per cambiare la mappa : fare clic sui pulsanti verdi con una croce nera per ingrandire, il pulsante verde con un trattino per diminuire, o sulla freccia verde per le mappe adiacenti.


METAR-TAF: